Terminal Aerodrome Forecast
Issued by NWS Wilmington, OH

Current Version | Previous Version | Graphics & Text | Print | Product List | Glossary On
Versions: 1 2 3 4 5 6 7 8 9 10 11 12 13 14 15 16 17 18 19 20 21 22
231
FTUS41 KILN 110534
TAFCVG
TAF
KCVG 110534Z 1106/1212 23004KT P6SM BKN035
     FM110900 VRB03KT P6SM SCT035 BKN100
     FM111500 29004KT P6SM SCT025
     FM112300 VRB03KT P6SM BKN120
     FM121000 VRB03KT P6SM BKN040=

USA.gov is the U.S. government's official web portal to all federal, state and local government web resources and services.